Time;durP1;ratioP1;P1;durP2;ratioP2;P2;SDS_P1;SDS_P2;PMS_P1;PMS_P2;Temp;Humidity;BMP_temperature;BMP_pressure;BME280_temperature;BME280_humidity;BME280_pressure;Samples;Min_cycle;Max_cycle;Signal;HPM_P1;HPM_P2
2021/12/17 00:00:35;;;;;;;33.50;20.43;;;;;;;4.44;72.21;101280.72;5066428;28;20239;-62
2021/12/17 00:08:12;;;;;;;32.83;20.37;;;;;;;4.87;70.05;101253.38;5067003;28;20235;-62
2021/12/17 00:10:39;;;;;;;33.43;20.57;;;;;;;4.69;70.67;101256.25;5043135;28;20228;-62
2021/12/17 00:13:07;;;;;;;29.70;17.33;;;;;;;4.49;70.62;101252.22;5054466;28;20234;-63
2021/12/17 00:15:36;;;;;;;36.13;19.30;;;;;;;4.72;70.94;101268.41;5031782;28;20231;-62
2021/12/17 00:18:13;;;;;;;32.37;19.43;;;;;;;4.93;69.75;101238.97;5033166;28;20235;-62
2021/12/17 00:53:28;;;;;;;54.70;30.53;;;;;;;4.64;71.42;101231.06;5049186;28;20224;-62
2021/12/17 00:55:55;;;;;;;54.90;35.63;;;;;;;4.85;71.37;101232.31;5039359;28;20229;-62
2021/12/17 00:58:22;;;;;;;40.23;27.57;;;;;;;5.14;69.97;101221.66;5065561;28;20229;-62
2021/12/17 01:00:49;;;;;;;25.73;19.80;;;;;;;4.40;71.36;101226.38;5029276;28;20231;-62
2021/12/17 01:03:16;;;;;;;24.67;17.23;;;;;;;5.07;69.56;101209.81;5029288;28;20232;-62
2021/12/17 01:05:44;;;;;;;26.47;17.20;;;;;;;5.05;70.27;101219.66;5017275;28;20226;-62
2021/12/17 01:08:11;;;;;;;21.87;16.50;;;;;;;4.76;71.13;101219.69;5018023;28;20225;-62
2021/12/17 01:10:46;;;;;;;18.83;15.27;;;;;;;4.41;72.86;101238.63;5045464;28;20445;-62
2021/12/17 01:13:13;;;;;;;22.13;15.50;;;;;;;5.30;69.40;101199.53;5050007;28;20219;-62
2021/12/17 01:15:42;;;;;;;21.50;15.90;;;;;;;4.56;71.16;101218.31;5048588;28;20695;-62
2021/12/17 01:18:15;;;;;;;20.57;14.40;;;;;;;4.73;71.71;101231.31;5047955;28;20224;-62
2021/12/17 01:36:35;;;;;;;18.77;13.80;;;;;;;4.21;73.10;101221.34;5046495;28;20582;-62
2021/12/17 01:44:17;;;;;;;21.83;16.40;;;;;;;5.14;69.59;101194.38;5046353;28;20804;-62
2021/12/17 01:46:49;;;;;;;22.70;16.03;;;;;;;4.84;69.40;101174.28;5044499;28;20619;-62
2021/12/17 02:00:31;;;;;;;18.40;13.53;;;;;;;5.14;69.61;101191.75;5046882;28;20223;-62
2021/12/17 02:03:01;;;;;;;21.27;14.10;;;;;;;5.12;69.21;101183.06;5029112;28;21191;-62
2021/12/17 02:05:28;;;;;;;21.30;15.20;;;;;;;5.32;68.47;101179.94;5046349;28;20232;-62
2021/12/17 02:07:57;;;;;;;20.33;15.27;;;;;;;4.89;70.20;101193.31;5045481;28;20632;-62
2021/12/17 02:32:34;;;;;;;19.93;14.73;;;;;;;4.67;72.11;101222.91;5046602;28;20224;-63
2021/12/17 02:37:42;;;;;;;20.10;14.60;;;;;;;4.97;70.82;101195.50;5047371;28;20249;-62
2021/12/17 02:45:34;;;;;;;22.17;14.43;;;;;;;4.51;71.35;101189.53;5027431;28;20235;-63
2021/12/17 02:48:13;;;;;;;19.67;14.40;;;;;;;5.00;70.66;101179.44;5027718;28;20228;-63
2021/12/17 02:50:50;;;;;;;21.43;14.10;;;;;;;4.95;70.33;101177.06;5027024;28;20228;-62
2021/12/17 02:53:18;;;;;;;18.77;14.17;;;;;;;5.09;70.13;101165.59;5027926;28;20587;-62
2021/12/17 02:55:51;;;;;;;19.37;14.43;;;;;;;5.19;69.62;101149.94;5010389;28;20722;-63
2021/12/17 02:58:20;;;;;;;21.83;15.23;;;;;;;5.32;69.08;101144.69;5020498;28;20226;-62
2021/12/17 03:00:47;;;;;;;19.90;13.50;;;;;;;5.17;69.66;101155.34;5047729;28;20826;-62
2021/12/17 03:03:16;;;;;;;22.03;14.43;;;;;;;5.35;68.86;101142.69;5044558;28;20227;-62
2021/12/17 03:05:44;;;;;;;19.43;14.23;;;;;;;5.58;68.74;101141.13;5044366;28;20715;-63
2021/12/17 03:08:15;;;;;;;19.17;14.57;;;;;;;5.38;69.17;101146.91;5046829;28;20707;-62
2021/12/17 03:10:47;;;;;;;20.03;14.57;;;;;;;4.84;70.30;101164.53;5043017;28;20227;-62
2021/12/17 03:13:21;;;;;;;20.23;14.40;;;;;;;4.91;70.21;101171.16;5044353;28;20711;-62
2021/12/17 03:16:00;;;;;;;18.53;13.77;;;;;;;5.12;70.57;101173.31;5065967;28;20235;-63
2021/12/17 03:23:41;;;;;;;21.00;15.03;;;;;;;5.14;69.59;101144.13;5026830;28;20236;-62
2021/12/17 03:26:18;;;;;;;20.13;14.97;;;;;;;5.15;69.94;101153.75;5027255;28;20233;-62
2021/12/17 03:28:48;;;;;;;22.60;15.57;;;;;;;4.77;71.84;101179.09;5026361;28;20227;-63
2021/12/17 03:31:17;;;;;;;21.10;14.97;;;;;;;5.09;70.63;101162.94;5025332;28;20233;-63
2021/12/17 03:33:48;;;;;;;19.77;15.30;;;;;;;5.08;70.35;101159.44;5009216;28;20638;-62
2021/12/17 03:36:17;;;;;;;22.97;16.23;;;;;;;5.05;70.29;101166.75;5027737;28;20229;-62
2021/12/17 03:38:46;;;;;;;28.80;19.10;;;;;;;4.84;71.18;101169.00;5033317;28;20623;-62
2021/12/17 03:41:20;;;;;;;31.50;20.97;;;;;;;5.10;70.79;101162.00;5047340;28;20234;-62
2021/12/17 03:43:49;;;;;;;20.53;17.20;;;;;;;4.48;72.11;101159.81;5044873;28;20236;-63
2021/12/17 03:46:17;;;;;;;22.53;17.00;;;;;;;4.87;71.51;101166.97;5050063;28;20558;-62
2021/12/17 03:48:45;;;;;;;22.77;15.63;;;;;;;5.16;70.60;101163.38;5050255;28;20228;-62
2021/12/17 03:51:17;;;;;;;24.47;15.90;;;;;;;4.92;71.30;101166.69;5050346;28;20234;-63
2021/12/17 03:53:53;;;;;;;23.50;15.77;;;;;;;4.81;72.11;101170.03;5040681;28;20236;-62
2021/12/17 03:56:21;;;;;;;20.23;14.47;;;;;;;4.40;73.19;101177.94;5042643;28;20949;-62
2021/12/17 03:58:50;;;;;;;19.57;14.70;;;;;;;4.36;73.70;101187.84;5049218;28;20674;-62
2021/12/17 04:01:18;;;;;;;21.50;15.83;;;;;;;4.71;72.24;101168.91;5032767;28;20224;-62
2021/12/17 04:03:45;;;;;;;21.20;15.17;;;;;;;4.31;72.89;101169.66;5041931;28;20243;-62
2021/12/17 04:06:13;;;;;;;20.60;14.57;;;;;;;4.82;72.09;101165.56;5022267;28;20238;-62
2021/12/17 04:08:40;;;;;;;20.70;14.13;;;;;;;4.97;71.70;101167.25;5031878;28;20227;-62
2021/12/17 04:11:09;;;;;;;21.67;15.50;;;;;;;4.95;71.81;101165.66;5030652;28;20587;-62
2021/12/17 04:13:38;;;;;;;23.00;17.50;;;;;;;4.95;71.56;101163.84;5022124;28;20794;-63
2021/12/17 04:16:09;;;;;;;24.30;14.70;;;;;;;4.48;72.63;101163.28;5012365;28;20346;-62
2021/12/17 04:18:40;;;;;;;22.40;16.03;;;;;;;4.53;72.71;101170.94;5027523;28;20227;-62
2021/12/17 04:21:13;;;;;;;20.97;14.77;;;;;;;4.48;72.40;101162.47;5050127;28;20228;-62
2021/12/17 04:23:42;;;;;;;21.20;15.23;;;;;;;4.07;74.03;101173.84;5056489;28;20240;-62
2021/12/17 04:26:10;;;;;;;32.30;17.17;;;;;;;5.21;71.25;101151.56;5038404;28;20229;-62
2021/12/17 04:28:42;;;;;;;20.87;15.33;;;;;;;4.49;72.79;101165.00;5017828;28;20234;-62
2021/12/17 04:31:09;;;;;;;22.13;14.87;;;;;;;4.17;73.40;101169.69;5050840;28;20232;-63
2021/12/17 04:33:41;;;;;;;21.93;14.93;;;;;;;4.73;72.07;101159.94;5047021;28;20229;-62
2021/12/17 04:36:15;;;;;;;21.33;16.43;;;;;;;4.95;72.02;101150.63;5030097;28;20232;-63
2021/12/17 04:38:42;;;;;;;24.80;15.40;;;;;;;4.87;72.17;101153.75;5029993;28;20234;-63
2021/12/17 04:41:38;;;;;;;20.43;14.90;;;;;;;4.76;72.70;101156.25;5021550;28;20220;-61
2021/12/17 04:46:36;;;;;;;21.77;15.00;;;;;;;5.21;71.61;101151.56;5049151;28;20226;-61
2021/12/17 04:59:48;;;;;;;18.23;12.73;;;;;;;3.40;79.37;101193.63;5047726;28;20770;-61
2021/12/17 05:02:16;;;;;;;18.63;13.97;;;;;;;3.18;78.11;101180.81;5049249;28;20234;-62
2021/12/17 05:04:44;;;;;;;16.87;12.57;;;;;;;4.04;75.26;101159.00;5014393;28;20246;-61
2021/12/17 05:07:13;;;;;;;23.73;13.57;;;;;;;3.83;76.81;101176.16;5030723;28;20228;-62
2021/12/17 05:20:47;;;;;;;15.63;11.83;;;;;;;4.72;73.93;101115.94;5045173;28;20231;-62
2021/12/17 05:23:15;;;;;;;19.40;11.53;;;;;;;4.74;74.17;101131.72;5037800;28;20227;-62
2021/12/17 05:25:42;;;;;;;15.40;10.80;;;;;;;4.25;76.06;101154.19;5048677;28;20242;-61
2021/12/17 05:28:09;;;;;;;18.30;12.07;;;;;;;4.73;73.63;101124.72;5035476;28;20235;-61
2021/12/17 05:30:37;;;;;;;17.63;11.77;;;;;;;4.63;72.84;101127.13;5035385;28;20221;-62
2021/12/17 05:33:04;;;;;;;17.87;11.90;;;;;;;4.80;73.36;101126.00;5048843;28;20763;-62
2021/12/17 05:35:31;;;;;;;15.73;11.40;;;;;;;5.00;72.37;101116.78;5043974;28;20228;-62
2021/12/17 05:37:58;;;;;;;16.50;12.10;;;;;;;5.36;69.75;101085.31;5029264;28;20257;-62
2021/12/17 05:40:25;;;;;;;15.03;11.00;;;;;;;4.94;73.35;101132.22;5016434;28;20216;-62
2021/12/17 05:42:55;;;;;;;16.67;11.63;;;;;;;4.46;74.46;101136.13;5055167;28;20267;-62
2021/12/17 05:45:33;;;;;;;15.10;11.33;;;;;;;4.77;73.25;101128.88;5050955;28;20249;-62
2021/12/17 05:48:06;;;;;;;17.57;11.53;;;;;;;4.71;73.38;101131.91;5068275;28;20610;-62
2021/12/17 05:50:36;;;;;;;15.83;9.97;;;;;;;4.79;73.94;101136.69;5068554;28;20234;-62
2021/12/17 05:53:04;;;;;;;14.83;10.53;;;;;;;4.83;72.15;101119.69;5059597;28;20605;-61
2021/12/17 05:55:32;;;;;;;16.13;10.80;;;;;;;5.74;69.67;101092.41;5048439;28;20223;-62
2021/12/17 05:57:59;;;;;;;12.87;10.60;;;;;;;5.17;71.59;101113.03;5045769;28;20735;-62
2021/12/17 06:00:29;;;;;;;15.07;11.13;;;;;;;5.67;69.93;101096.44;5009646;28;20229;-61
2021/12/17 06:02:57;;;;;;;15.47;11.07;;;;;;;5.50;70.04;101109.03;4994161;28;20229;-62
2021/12/17 06:05:25;;;;;;;16.53;11.17;;;;;;;5.75;69.50;101102.03;5048608;22;20621;-64
2021/12/17 06:07:52;;;;;;;13.53;10.60;;;;;;;5.42;70.54;101117.50;5028310;28;20239;-64
2021/12/17 06:10:20;;;;;;;15.70;10.73;;;;;;;5.22;70.92;101121.50;5012626;28;20304;-64
2021/12/17 06:12:48;;;;;;;15.10;10.57;;;;;;;5.48;70.54;101121.53;5015509;28;20234;-64
2021/12/17 06:15:18;;;;;;;13.63;10.17;;;;;;;5.17;71.05;101123.59;5043960;28;20235;-64
2021/12/17 06:17:45;;;;;;;17.00;11.20;;;;;;;5.08;71.57;101133.00;5029482;28;20235;-64
2021/12/17 06:20:15;;;;;;;14.13;9.80;;;;;;;5.44;70.11;101110.28;5027865;28;20547;-64
2021/12/17 06:22:42;;;;;;;14.90;10.90;;;;;;;5.12;71.11;101115.13;5027083;28;20605;-67
2021/12/17 06:25:10;;;;;;;14.17;11.10;;;;;;;5.49;70.09;101112.63;5021341;28;20233;-65
2021/12/17 06:27:38;;;;;;;14.20;10.70;;;;;;;5.49;70.08;101114.44;5028622;28;20232;-66
2021/12/17 06:30:07;;;;;;;15.57;10.90;;;;;;;5.64;69.63;101106.28;5008727;28;20233;-66
2021/12/17 06:32:34;;;;;;;17.73;12.40;;;;;;;5.43;70.56;101121.00;5014118;28;20232;-65
2021/12/17 06:35:04;;;;;;;15.87;11.20;;;;;;;5.31;70.46;101116.53;5027856;28;20225;-65
2021/12/17 06:37:31;;;;;;;17.03;12.20;;;;;;;4.71;72.09;101142.47;5028544;28;20722;-66
2021/12/17 06:39:58;;;;;;;14.70;10.17;;;;;;;4.56;72.12;101149.59;5028928;28;20238;-66
2021/12/17 06:42:26;;;;;;;12.87;9.63;;;;;;;4.84;71.95;101147.84;5033515;28;20300;-66
2021/12/17 06:44:56;;;;;;;17.80;11.20;;;;;;;4.96;71.37;101133.81;5027402;28;20718;-65
2021/12/17 06:47:30;;;;;;;14.50;11.03;;;;;;;4.86;71.05;101138.00;4989519;28;20230;-66
2021/12/17 07:22:18;;;;;;;16.50;11.33;;;;;;;4.76;71.25;101180.03;5011842;28;20244;-65
2021/12/17 07:28:02;;;;;;;13.47;10.00;;;;;;;4.91;71.49;101192.28;5011637;28;20224;-66
2021/12/17 07:33:33;;;;;;;15.00;10.33;;;;;;;5.08;70.08;101193.00;4979695;28;20786;-65
2021/12/17 07:36:09;;;;;;;12.83;9.53;;;;;;;4.09;73.83;101222.97;5019699;28;20240;-66
2021/12/17 07:38:39;;;;;;;13.13;9.80;;;;;;;4.12;72.86;101214.00;5013244;28;20225;-66
2021/12/17 07:41:07;;;;;;;12.23;9.17;;;;;;;4.61;72.14;101210.09;5006694;28;20247;-65
2021/12/17 07:43:38;;;;;;;13.70;9.60;;;;;;;4.72;71.79;101207.59;5042709;28;20605;-65
2021/12/17 07:46:09;;;;;;;13.40;9.20;;;;;;;5.06;70.01;101184.31;5033379;28;20683;-65
2021/12/17 07:48:39;;;;;;;11.47;8.67;;;;;;;4.76;71.34;101206.47;5010287;28;20226;-66
2021/12/17 07:51:09;;;;;;;10.93;8.70;;;;;;;4.22;72.34;101227.50;5023641;28;20239;-66
2021/12/17 07:53:38;;;;;;;10.13;8.10;;;;;;;3.64;73.37;101234.50;5021311;28;20233;-65
2021/12/17 07:56:08;;;;;;;13.20;8.20;;;;;;;4.70;71.35;101220.94;5015012;28;20227;-66
2021/12/17 07:58:35;;;;;;;9.50;7.60;;;;;;;4.69;70.41;101213.13;5031885;28;20771;-66
2021/12/17 08:01:03;;;;;;;10.20;8.00;;;;;;;4.09;70.94;101212.41;5031886;28;20597;-65
2021/12/17 08:03:30;;;;;;;10.53;7.77;;;;;;;3.96;73.13;101238.72;5014963;28;20237;-65
2021/12/17 08:05:58;;;;;;;11.77;7.27;;;;;;;4.27;72.06;101236.84;5009800;28;20237;-66
2021/12/17 08:08:25;;;;;;;9.63;7.57;;;;;;;3.70;72.19;101234.13;5007886;28;20225;-65
2021/12/17 08:10:52;;;;;;;9.07;7.40;;;;;;;4.19;71.93;101251.47;5011881;28;20225;-65
2021/12/17 08:13:25;;;;;;;8.37;7.30;;;;;;;3.26;74.22;101262.13;5010458;28;20247;-66
2021/12/17 08:19:07;;;;;;;8.07;6.83;;;;;;;4.00;71.89;101251.75;5010796;28;20237;-65
2021/12/17 08:32:07;;;;;;;11.33;7.47;;;;;;;4.06;70.78;101236.34;5030356;28;20229;-66
2021/12/17 08:34:35;;;;;;;8.20;6.77;;;;;;;4.45;70.64;101226.06;5012744;28;20240;-66
2021/12/17 08:37:02;;;;;;;9.63;6.90;;;;;;;4.56;70.17;101228.06;5029587;28;20230;-68
2021/12/17 08:39:30;;;;;;;8.23;6.77;;;;;;;4.44;68.77;101225.22;5030464;28;20220;-65
2021/12/17 08:41:58;;;;;;;8.47;6.63;;;;;;;4.57;69.61;101235.00;5032542;28;20251;-66
2021/12/17 08:44:25;;;;;;;9.47;7.30;;;;;;;5.36;67.28;101199.97;5050471;28;20231;-66
2021/12/17 08:46:52;;;;;;;8.83;6.87;;;;;;;4.96;68.47;101229.03;5051215;28;21014;-65
2021/12/17 08:49:19;;;;;;;8.93;6.97;;;;;;;4.85;68.61;101234.13;5024646;28;20236;-66
2021/12/17 08:51:51;;;;;;;9.40;6.93;;;;;;;3.44;72.82;101273.47;5013647;28;20232;-66
2021/12/17 08:54:18;;;;;;;8.07;6.87;;;;;;;3.91;71.56;101275.09;5029775;28;20231;-66
2021/12/17 08:56:47;;;;;;;8.27;7.20;;;;;;;4.58;69.61;101252.59;5039770;28;20232;-66
2021/12/17 08:59:17;;;;;;;8.30;6.70;;;;;;;3.66;71.79;101272.19;5027920;28;20225;-66
2021/12/17 09:01:45;;;;;;;9.53;6.90;;;;;;;4.75;68.16;101241.78;5040952;28;20220;-66
2021/12/17 09:04:13;;;;;;;8.60;6.60;;;;;;;4.67;68.75;101239.66;5030790;28;20255;-66
2021/12/17 09:06:40;;;;;;;8.00;6.40;;;;;;;4.26;68.68;101256.25;5029392;28;20224;-66
2021/12/17 09:09:08;;;;;;;7.13;6.00;;;;;;;4.57;70.06;101267.59;5030703;28;20232;-66
2021/12/17 09:11:38;;;;;;;7.53;6.13;;;;;;;4.85;68.69;101240.25;5029741;28;20723;-65
2021/12/17 09:14:06;;;;;;;8.20;6.57;;;;;;;5.23;67.21;101226.38;5046350;28;20261;-66
2021/12/17 09:16:33;;;;;;;8.47;6.37;;;;;;;4.87;68.68;101259.53;5034347;28;20267;-65
2021/12/17 09:19:03;;;;;;;7.73;6.10;;;;;;;5.61;65.94;101220.34;5029212;28;20743;-65
2021/12/17 09:21:31;;;;;;;7.87;6.50;;;;;;;5.42;67.02;101225.16;5026705;28;20225;-65
2021/12/17 09:23:58;;;;;;;8.20;6.60;;;;;;;5.82;65.94;101218.00;5029445;28;20746;-66
2021/12/17 09:26:25;;;;;;;8.13;6.33;;;;;;;5.19;68.06;101239.91;5028608;28;20240;-66
2021/12/17 09:28:53;;;;;;;8.63;6.23;;;;;;;6.00;65.95;101234.44;5029816;28;20232;-66
2021/12/17 09:31:20;;;;;;;6.77;5.90;;;;;;;6.38;64.66;101225.63;5029914;28;20671;-66
2021/12/17 09:33:49;;;;;;;7.90;6.30;;;;;;;6.08;64.85;101214.53;5029868;28;20236;-66
2021/12/17 09:36:18;;;;;;;6.60;5.40;;;;;;;5.70;65.29;101220.63;5028448;28;20229;-66
2021/12/17 09:38:49;;;;;;;7.87;6.40;;;;;;;5.84;65.23;101225.84;5034907;28;20233;-65
2021/12/17 09:41:17;;;;;;;7.07;6.30;;;;;;;5.74;65.64;101228.28;5029467;28;20232;-65
2021/12/17 09:43:44;;;;;;;7.53;5.70;;;;;;;5.68;65.18;101220.75;5028414;28;20234;-66
2021/12/17 09:46:11;;;;;;;7.70;5.63;;;;;;;4.65;67.32;101251.25;5027377;28;20229;-65
2021/12/17 09:48:38;;;;;;;6.83;5.83;;;;;;;5.23;66.28;101234.31;5028664;28;20696;-65
2021/12/17 09:51:07;;;;;;;7.17;6.23;;;;;;;5.58;64.98;101220.53;5024175;28;20231;-66
2021/12/17 09:53:35;;;;;;;6.73;5.63;;;;;;;5.51;66.00;101232.47;5028635;28;20221;-66
2021/12/17 09:56:04;;;;;;;7.03;5.57;;;;;;;5.62;66.11;101221.19;5030011;28;20242;-66
2021/12/17 09:58:32;;;;;;;6.90;5.43;;;;;;;5.00;66.74;101237.59;5027348;28;20220;-65
2021/12/17 10:00:59;;;;;;;7.37;6.00;;;;;;;6.20;63.60;101188.03;5025687;28;20225;-66
2021/12/17 10:03:29;;;;;;;7.27;5.90;;;;;;;6.28;64.50;101213.97;5029676;28;20217;-66
2021/12/17 10:05:57;;;;;;;6.93;5.77;;;;;;;5.77;66.00;101217.47;5027146;28;20239;-66
2021/12/17 10:08:25;;;;;;;7.83;5.23;;;;;;;5.04;66.47;101234.69;5023947;28;20225;-66
2021/12/17 10:10:57;;;;;;;6.10;5.00;;;;;;;5.53;64.83;101203.25;5027889;28;20233;-66
2021/12/17 10:13:33;;;;;;;6.87;5.20;;;;;;;5.34;66.35;101222.16;5026535;28;20217;-66
2021/12/17 10:16:06;;;;;;;6.50;5.20;;;;;;;5.55;66.54;101228.69;5025237;28;20229;-66
2021/12/17 10:18:42;;;;;;;6.37;5.27;;;;;;;6.06;64.69;101211.13;5027074;28;20720;-66
2021/12/17 10:21:23;;;;;;;5.67;4.67;;;;;;;5.33;66.09;101218.69;5024365;28;20722;-65
2021/12/17 10:23:52;;;;;;;7.67;5.20;;;;;;;6.32;64.73;101201.38;5026557;28;20606;-67
2021/12/17 10:26:20;;;;;;;8.00;5.10;;;;;;;6.15;64.41;101199.88;5024474;28;20233;-66
2021/12/17 10:29:00;;;;;;;8.27;5.97;;;;;;;4.83;67.30;101221.00;5028409;28;20867;-66
2021/12/17 10:31:29;;;;;;;6.93;5.67;;;;;;;6.40;63.56;101199.88;5023348;28;20951;-66
2021/12/17 10:34:00;;;;;;;8.03;6.00;;;;;;;6.15;64.84;101189.28;5029191;28;20216;-66
2021/12/17 10:36:31;;;;;;;7.53;5.10;;;;;;;6.10;65.26;101202.84;5026148;28;20239;-67
2021/12/17 10:39:20;;;;;;;8.07;5.77;;;;;;;6.02;64.83;101184.84;5024894;28;20216;-66
2021/12/17 10:41:48;;;;;;;7.37;5.33;;;;;;;5.95;64.87;101207.44;5024129;28;20573;-66
2021/12/17 10:44:15;;;;;;;7.30;5.20;;;;;;;6.55;63.90;101187.31;5028233;28;20218;-66
2021/12/17 10:47:05;;;;;;;7.50;5.47;;;;;;;5.63;66.42;101221.06;5034647;28;20239;-66
2021/12/17 10:49:32;;;;;;;9.97;6.03;;;;;;;6.30;64.13;101188.19;5025370;28;20231;-66
2021/12/17 10:52:14;;;;;;;7.80;6.00;;;;;;;6.67;64.17;101174.97;5036868;28;20251;-66
2021/12/17 10:54:41;;;;;;;7.40;5.50;;;;;;;6.73;63.54;101182.50;5025380;28;20241;-66
2021/12/17 10:57:09;;;;;;;8.13;5.27;;;;;;;7.31;61.98;101169.34;5028106;28;20700;-66
2021/12/17 10:59:37;;;;;;;8.47;5.57;;;;;;;5.71;64.93;101191.41;5022909;28;20229;-66
2021/12/17 11:03:45;;;;;;;7.53;6.20;;;;;;;5.51;66.64;101195.41;5038718;28;20615;-65
2021/12/17 11:06:12;;;;;;;8.23;6.43;;;;;;;5.42;66.36;101188.94;5016846;28;20262;-65
2021/12/17 11:08:45;;;;;;;7.80;5.90;;;;;;;5.75;65.69;101187.63;5015206;28;20225;-66
2021/12/17 11:11:13;;;;;;;7.50;6.20;;;;;;;5.05;68.17;101211.72;5014262;28;20719;-65
2021/12/17 11:14:00;;;;;;;7.23;5.73;;;;;;;5.38;67.18;101191.91;5017740;28;20231;-65
2021/12/17 11:16:28;;;;;;;9.57;6.20;;;;;;;5.74;66.99;101185.91;5015160;28;20230;-65
2021/12/17 11:18:55;;;;;;;8.47;6.73;;;;;;;5.77;66.49;101179.56;5014919;28;20539;-65
2021/12/17 11:21:23;;;;;;;8.30;6.50;;;;;;;6.42;65.51;101159.16;5017102;28;20226;-65
2021/12/17 11:23:50;;;;;;;9.00;7.10;;;;;;;6.91;65.05;101179.44;5016415;28;20237;-65
2021/12/17 11:26:17;;;;;;;9.33;7.10;;;;;;;5.87;66.73;101191.22;5014782;28;20233;-65
2021/12/17 11:28:46;;;;;;;8.87;7.30;;;;;;;6.47;64.91;101165.81;5013821;28;20231;-65
2021/12/17 11:31:13;;;;;;;10.10;6.80;;;;;;;6.75;64.15;101159.38;5019984;28;20224;-64
2021/12/17 11:33:43;;;;;;;8.17;6.03;;;;;;;6.48;64.82;101162.22;5009635;28;20229;-65
2021/12/17 11:36:10;;;;;;;7.57;6.67;;;;;;;6.12;65.85;101169.16;5005102;28;20318;-65
2021/12/17 11:38:50;;;;;;;9.33;7.47;;;;;;;6.12;65.46;101160.34;5010677;28;20233;-65
2021/12/17 11:41:36;;;;;;;8.80;6.87;;;;;;;6.42;64.89;101167.13;5043303;28;20230;-65
2021/12/17 11:44:09;;;;;;;10.83;7.13;;;;;;;6.30;64.77;101171.47;5030620;28;20221;-65
2021/12/17 11:46:36;;;;;;;9.17;6.90;;;;;;;6.24;65.24;101156.84;5026407;28;20235;-64
2021/12/17 11:49:12;;;;;;;8.70;6.97;;;;;;;6.40;64.79;101168.06;5044908;28;20228;-65
2021/12/17 11:51:39;;;;;;;8.20;6.73;;;;;;;6.05;67.14;101177.66;5045237;28;20230;-65
2021/12/17 11:54:15;;;;;;;8.40;6.63;;;;;;;6.65;64.82;101161.00;5047998;28;20224;-65
2021/12/17 11:56:50;;;;;;;9.33;7.30;;;;;;;6.47;64.68;101143.78;5054946;28;20284;-65
2021/12/17 11:59:23;;;;;;;8.20;6.67;;;;;;;6.39;66.44;101174.34;5035515;28;20224;-65
2021/12/17 12:02:16;;;;;;;9.63;7.23;;;;;;;6.71;63.91;101163.22;5036272;28;20306;-65
2021/12/17 12:04:45;;;;;;;8.70;6.87;;;;;;;6.73;63.68;101155.16;5040635;28;20228;-65
2021/12/17 12:07:20;;;;;;;8.27;6.40;;;;;;;6.37;64.31;101164.78;5055422;22;20694;-67
2021/12/17 12:09:57;;;;;;;10.93;7.67;;;;;;;6.01;65.33;101179.66;5037242;28;20230;-67
2021/12/17 12:12:33;;;;;;;8.27;6.60;;;;;;;5.86;66.74;101189.50;5041200;28;20228;-67
2021/12/17 12:15:27;;;;;;;8.17;6.90;;;;;;;6.71;63.73;101163.22;5031595;28;20220;-67
2021/12/17 12:17:57;;;;;;;9.77;6.47;;;;;;;6.36;64.33;101156.00;5049041;28;20232;-67
2021/12/17 12:20:58;;;;;;;10.47;7.47;;;;;;;7.11;64.10;101152.28;5028000;28;20221;-66
2021/12/17 12:23:32;;;;;;;10.40;7.13;;;;;;;6.42;64.86;101152.06;5028998;28;20420;-67
2021/12/17 12:26:05;;;;;;;7.90;6.40;;;;;;;7.11;63.08;101136.34;5032418;28;20263;-67
2021/12/17 12:28:47;;;;;;;7.10;5.87;;;;;;;7.07;63.20;101128.75;5048814;28;20246;-66
2021/12/17 12:36:52;;;;;;;8.40;6.73;;;;;;;6.15;64.53;101136.28;5028518;28;20245;-68
2021/12/17 12:39:20;;;;;;;8.43;6.80;;;;;;;5.76;66.36;101148.75;5029531;28;20217;-68
2021/12/17 12:41:55;;;;;;;8.13;6.40;;;;;;;6.36;65.23;101145.41;5029113;28;20224;-66
2021/12/17 12:44:43;;;;;;;7.60;6.27;;;;;;;5.32;66.69;101165.88;5030140;28;20598;-66
2021/12/17 12:47:29;;;;;;;8.63;5.87;;;;;;;5.50;66.74;101183.16;5027586;28;20749;-66
2021/12/17 12:50:02;;;;;;;7.70;5.90;;;;;;;6.05;66.70;101159.09;5029206;28;20230;-66
2021/12/17 12:52:39;;;;;;;8.37;6.10;;;;;;;5.16;67.79;101177.47;5022470;28;20235;-66
2021/12/17 12:55:29;;;;;;;7.63;5.80;;;;;;;6.18;65.63;101154.63;5026282;28;20232;-66
2021/12/17 12:58:01;;;;;;;7.80;5.63;;;;;;;5.77;66.79;101169.81;5026276;28;20239;-66
2021/12/17 13:00:31;;;;;;;6.93;5.57;;;;;;;6.11;65.25;101150.72;5024343;28;20231;-66
2021/12/17 13:03:04;;;;;;;8.17;6.37;;;;;;;6.09;65.30;101147.34;5028587;28;20227;-66
2021/12/17 13:05:33;;;;;;;10.03;5.93;;;;;;;6.95;63.66;101134.03;5028974;28;20226;-66
2021/12/17 13:08:05;;;;;;;7.70;6.10;;;;;;;6.63;63.51;101133.75;5012767;28;20229;-66
2021/12/17 13:10:39;;;;;;;9.13;6.13;;;;;;;5.82;66.02;101157.09;5014437;28;20227;-65
2021/12/17 13:24:18;;;;;;;7.17;5.40;;;;;;;6.17;64.68;101137.91;5029495;28;20617;-64
2021/12/17 13:27:10;;;;;;;8.60;6.00;;;;;;;7.08;63.26;101135.75;5023987;28;20234;-68
2021/12/17 13:29:43;;;;;;;8.17;6.10;;;;;;;6.31;64.57;101142.19;5027432;28;20226;-65
2021/12/17 13:32:15;;;;;;;9.93;6.17;;;;;;;5.68;66.36;101156.38;5023493;28;20216;-65
2021/12/17 13:34:45;;;;;;;9.10;6.40;;;;;;;5.67;66.72;101167.94;5028646;28;20239;-65
2021/12/17 13:37:18;;;;;;;8.47;6.00;;;;;;;6.12;65.40;101147.09;5025703;28;20229;-65
2021/12/17 13:39:47;;;;;;;7.80;6.70;;;;;;;6.51;64.68;101132.00;5024315;28;20755;-69
2021/12/17 13:42:32;;;;;;;7.37;5.93;;;;;;;5.57;66.67;101147.38;5028089;28;20702;-69
2021/12/17 13:45:01;;;;;;;6.70;5.30;;;;;;;5.75;66.77;101139.97;5026059;28;20561;-69
2021/12/17 13:47:45;;;;;;;7.50;6.00;;;;;;;6.30;64.93;101126.41;5029035;28;20755;-71
2021/12/17 13:50:20;;;;;;;6.63;5.40;;;;;;;6.27;65.35;101122.19;5028811;28;20232;-70
2021/12/17 13:52:53;;;;;;;8.93;5.47;;;;;;;7.13;62.97;101110.56;5022379;28;20241;-71
2021/12/17 13:55:32;;;;;;;8.03;5.87;;;;;;;7.31;62.71;101104.81;5027389;28;20220;-71
2021/12/17 13:58:05;;;;;;;7.57;6.60;;;;;;;7.63;62.31;101098.84;5029455;28;20234;-71
2021/12/17 14:00:39;;;;;;;8.23;5.67;;;;;;;6.77;64.50;101112.34;5028518;28;20231;-72
2021/12/17 14:03:13;;;;;;;10.50;6.60;;;;;;;7.49;62.59;101105.22;5025321;28;20268;-71
2021/12/17 14:05:48;;;;;;;8.63;6.73;;;;;;;7.49;62.05;101084.81;5028514;28;20244;-71
2021/12/17 14:08:19;;;;;;;8.80;6.03;;;;;;;7.75;61.76;101097.06;5028220;28;20216;-70
2021/12/17 14:10:48;;;;;;;8.50;6.83;;;;;;;7.18;63.04;101099.59;5026050;28;20594;-69
2021/12/17 14:13:21;;;;;;;8.33;5.63;;;;;;;7.19;62.76;101101.28;5028092;28;20229;-71
2021/12/17 14:16:05;;;;;;;8.00;6.23;;;;;;;7.50;62.46;101107.75;5027869;28;20232;-71
2021/12/17 14:18:33;;;;;;;8.17;6.30;;;;;;;7.76;61.52;101098.75;5026752;28;20229;-71
2021/12/17 14:21:03;;;;;;;9.40;6.77;;;;;;;7.37;62.17;101107.00;5027846;28;20220;-70
2021/12/17 14:23:32;;;;;;;7.70;6.30;;;;;;;7.19;62.48;101095.16;5028376;28;20734;-69
2021/12/17 14:26:07;;;;;;;7.73;6.37;;;;;;;7.94;61.28;101083.16;5027345;28;20225;-70
2021/12/17 14:28:38;;;;;;;8.03;6.03;;;;;;;7.69;61.63;101080.63;5027353;28;20232;-70
2021/12/17 14:31:14;;;;;;;8.03;6.83;;;;;;;7.83;61.06;101084.00;5027162;28;20228;-71
2021/12/17 14:33:42;;;;;;;7.93;6.37;;;;;;;7.66;61.84;101096.81;5026352;28;20213;-67
2021/12/17 14:36:14;;;;;;;9.93;6.43;;;;;;;7.85;61.55;101088.22;5028287;28;20246;-70
2021/12/17 14:38:46;;;;;;;7.70;6.10;;;;;;;7.65;62.18;101089.78;5027697;28;20228;-72
2021/12/17 14:41:37;;;;;;;9.73;6.93;;;;;;;8.12;61.11;101094.97;5028207;28;20231;-72
2021/12/17 14:46:52;;;;;;;7.80;6.13;;;;;;;7.74;62.07;101106.84;5027364;28;20225;-68
2021/12/17 15:03:48;;;;;;;7.93;6.30;;;;;;;8.05;60.65;101110.56;5020362;28;20784;-69
2021/12/17 15:06:10;;;;;;;8.77;6.67;;;;;;;7.59;61.89;101129.28;5007620;28;20235;-72
2021/12/17 15:08:38;;;;;;;7.87;6.03;;;;;;;6.93;63.09;101135.94;5005841;28;20226;-70
2021/12/17 15:11:13;;;;;;;11.00;6.20;;;;;;;7.28;62.34;101127.16;5008728;28;20290;-76
2021/12/17 15:13:40;;;;;;;7.60;5.83;;;;;;;7.18;62.76;101133.25;5031568;28;20234;-70
2021/12/17 15:16:07;;;;;;;8.60;6.97;;;;;;;6.89;63.50;101152.19;5039259;28;20232;-69
2021/12/17 15:18:34;;;;;;;7.40;6.33;;;;;;;7.03;62.93;101149.38;5027386;28;20229;-66
2021/12/17 15:21:01;;;;;;;8.70;6.43;;;;;;;6.40;63.78;101153.97;5028091;28;20232;-69